Time;durP1;ratioP1;P1;durP2;ratioP2;P2;SDS_P1;SDS_P2;PMS_P1;PMS_P2;Temp;Humidity;BMP_temperature;BMP_pressure;BME280_temperature;BME280_humidity;BME280_pressure;Samples;Min_cycle;Max_cycle;Signal;HPM_P1;HPM_P2
2022/09/02 00:01:28;;;;;;;2.80;2.40;;;21.70;64.90;;;22.04;43.86;98715.34;5018037;27;123962;-84
2022/09/02 00:03:59;;;;;;;4.40;3.20;;;21.70;65.20;;;21.99;43.96;98710.09;5027085;28;114787;-85
2022/09/02 00:06:27;;;;;;;3.07;2.50;;;21.60;65.30;;;21.95;43.88;98702.81;5028175;27;113985;-83
2022/09/02 00:08:54;;;;;;;3.87;2.87;;;21.60;65.50;;;21.92;44.23;98703.59;5012381;28;123345;-86
2022/09/02 00:11:28;;;;;;;4.90;3.10;;;21.60;65.80;;;21.90;44.34;98704.00;5020773;28;125813;-85
2022/09/02 00:13:55;;;;;;;4.70;2.87;;;21.60;66.00;;;21.86;44.45;98705.16;5014820;28;114580;-86
2022/09/02 00:16:23;;;;;;;2.53;2.33;;;21.50;66.00;;;21.82;44.59;98696.72;5017796;28;114061;-85
2022/09/02 00:18:52;;;;;;;2.60;2.40;;;21.50;66.20;;;21.78;44.60;98701.50;5017344;28;124708;-86
2022/09/02 00:21:20;;;;;;;3.23;2.93;;;21.40;66.30;;;21.76;44.85;98689.81;5017594;28;123041;-84
2022/09/02 00:23:48;;;;;;;3.10;2.80;;;21.40;66.60;;;21.74;44.90;98690.22;5010309;28;114357;-86
2022/09/02 00:26:14;;;;;;;5.07;2.43;;;21.40;66.80;;;21.71;44.57;98688.19;5013685;28;113735;-87
2022/09/02 00:28:41;;;;;;;3.60;2.90;;;21.40;66.90;;;21.68;44.99;98688.97;5017938;28;124141;-86
2022/09/02 00:31:08;;;;;;;3.27;2.67;;;21.30;67.00;;;21.66;44.92;98684.94;5016971;27;124342;-85
2022/09/02 00:33:35;;;;;;;5.33;3.27;;;21.30;67.20;;;21.62;44.81;98680.06;5021262;27;115302;-86
2022/09/02 00:36:03;;;;;;;3.73;2.97;;;21.30;67.50;;;21.58;45.09;98679.25;5016984;28;114891;-84
2022/09/02 00:38:32;;;;;;;3.57;2.73;;;21.20;67.60;;;21.54;45.32;98675.59;5022128;28;123604;-82
2022/09/02 00:41:04;;;;;;;3.47;2.80;;;21.20;67.80;;;21.51;45.25;98669.94;5024180;28;124308;-83
2022/09/02 00:43:48;;;;;;;3.00;2.47;;;21.10;67.90;;;21.47;45.23;98669.13;5010801;28;114707;-83
2022/09/02 00:46:20;;;;;;;3.20;2.83;;;21.10;68.20;;;21.43;45.42;98668.28;5013814;28;114544;-81
2022/09/02 00:49:16;;;;;;;3.50;2.60;;;21.10;68.30;;;21.35;45.86;98673.00;5014328;27;124140;-83
2022/09/02 00:51:55;;;;;;;3.40;3.10;;;21.10;68.50;;;21.31;45.78;98672.16;5004580;28;123977;-83
2022/09/02 00:54:23;;;;;;;3.43;2.83;;;21.00;68.60;;;21.26;46.12;98666.91;5007746;28;114685;-84
2022/09/02 00:56:53;;;;;;;3.53;2.40;;;21.00;68.80;;;21.23;46.14;98671.28;5006839;28;114012;-83
2022/09/02 00:59:39;;;;;;;4.07;2.80;;;20.90;69.00;;;21.19;45.92;98674.03;5005854;28;123979;-84
2022/09/02 01:02:06;;;;;;;5.20;3.10;;;20.90;70.00;;;21.19;46.42;98678.88;5022268;27;122738;-84
2022/09/02 01:04:34;;;;;;;3.37;2.70;;;20.80;69.50;;;21.18;46.19;98672.44;5014313;27;114186;-83
2022/09/02 01:07:02;;;;;;;3.13;2.83;;;20.80;69.70;;;21.16;46.19;98665.59;5009311;28;114212;-84
2022/09/02 01:09:30;;;;;;;3.60;2.80;;;20.80;70.00;;;21.15;46.10;98684.47;5005562;28;124372;-81
2022/09/02 01:11:57;;;;;;;2.93;2.63;;;20.80;70.20;;;21.11;46.24;98672.38;5008469;28;124217;-81
2022/09/02 01:14:24;;;;;;;3.20;2.80;;;20.80;70.30;;;21.08;46.16;98673.13;5009236;28;113584;-83
2022/09/02 01:16:55;;;;;;;4.70;2.80;;;20.70;70.40;;;21.04;46.49;98677.13;5011609;28;113407;-84
2022/09/02 01:19:27;;;;;;;3.63;2.60;;;20.70;70.60;;;21.02;46.51;98674.69;5006733;28;124008;-84
2022/09/02 01:21:56;;;;;;;3.50;2.73;;;20.60;70.80;;;21.02;46.98;98671.06;5008373;28;124287;-83
2022/09/02 01:24:27;;;;;;;3.90;2.80;;;20.60;70.90;;;21.04;46.61;98675.13;5006906;28;115228;-84
2022/09/02 01:26:56;;;;;;;4.70;2.97;;;20.60;71.10;;;21.06;46.77;98672.72;5016828;27;114316;-86
2022/09/02 01:29:25;;;;;;;3.50;2.53;;;20.60;71.30;;;21.05;46.55;98673.91;5013714;28;124858;-82
2022/09/02 01:31:52;;;;;;;3.53;2.53;;;20.60;71.40;;;21.06;46.56;98681.13;5027010;28;123340;-85
2022/09/02 01:34:19;;;;;;;4.83;2.97;;;20.60;71.50;;;21.06;46.64;98683.13;5027298;28;114325;-86
2022/09/02 01:36:45;;;;;;;3.70;3.00;;;20.60;71.50;;;21.07;46.62;98674.34;5009242;28;114380;-83
2022/09/02 01:39:13;;;;;;;2.90;2.60;;;20.60;71.70;;;21.08;46.21;98677.94;5018023;28;124119;-85
2022/09/02 01:41:43;;;;;;;4.83;2.77;;;20.60;71.70;;;21.06;46.26;98675.53;5009881;28;123786;-86
2022/09/02 01:44:09;;;;;;;3.23;2.93;;;20.60;71.80;;;21.06;46.27;98674.72;5018307;28;114068;-87
2022/09/02 01:46:36;;;;;;;2.87;2.47;;;20.60;71.80;;;21.06;46.40;98677.53;5008445;28;111928;-84
2022/09/02 01:49:04;;;;;;;2.77;2.50;;;20.60;71.90;;;21.03;46.73;98670.69;5021666;28;123213;-84
2022/09/02 01:51:30;;;;;;;2.77;2.43;;;20.60;72.00;;;20.95;46.96;98669.00;5013749;28;122369;-82
2022/09/02 01:53:57;;;;;;;6.20;3.23;;;20.50;72.00;;;20.89;46.95;98676.16;5014341;28;113480;-85
2022/09/02 01:56:24;;;;;;;3.00;2.60;;;20.40;72.00;;;20.82;46.75;98670.44;5007234;28;114021;-82
2022/09/02 01:58:50;;;;;;;3.53;2.80;;;20.40;72.30;;;20.78;47.11;98676.03;5009613;27;124551;-83
2022/09/02 02:01:17;;;;;;;3.00;2.70;;;20.40;72.60;;;20.77;47.20;98663.19;5010985;27;123844;-82
2022/09/02 02:03:43;;;;;;;3.37;3.00;;;20.40;72.80;;;20.77;46.96;98673.59;5021295;27;113689;-83
2022/09/02 02:06:13;;;;;;;2.90;2.60;;;20.40;72.90;;;20.77;47.19;98670.78;5013400;27;113075;-84
2022/09/02 02:08:41;;;;;;;4.80;3.00;;;20.40;73.10;;;20.79;46.82;98682.44;5005638;28;123942;-84
2022/09/02 02:11:08;;;;;;;4.00;2.97;;;20.40;73.10;;;20.78;46.95;98678.84;5008083;28;123899;-84
2022/09/02 02:13:36;;;;;;;3.20;2.90;;;20.40;73.10;;;20.79;47.24;98674.03;5009708;28;115341;-83
2022/09/02 02:16:03;;;;;;;3.50;2.60;;;20.40;73.20;;;20.80;47.18;98673.66;5017196;28;115260;-83
2022/09/02 02:18:30;;;;;;;3.77;2.57;;;20.30;73.10;;;20.81;47.11;98674.47;5006885;28;123233;-82
2022/09/02 02:20:56;;;;;;;3.10;2.63;;;20.30;73.20;;;20.82;47.10;98678.88;5020407;27;122030;-83
2022/09/02 02:23:23;;;;;;;3.53;2.47;;;20.30;73.20;;;20.82;46.89;98670.44;5035626;27;113352;-84
2022/09/02 02:25:50;;;;;;;2.40;2.20;;;20.30;73.30;;;20.86;46.79;98676.94;5014970;28;113026;-83
2022/09/02 02:28:17;;;;;;;4.27;3.07;;;20.40;73.40;;;20.88;46.81;98663.31;5018530;28;124302;-84
2022/09/02 02:30:43;;;;;;;3.60;2.20;;;20.40;73.40;;;20.88;46.88;98666.13;5010897;28;123934;-84
2022/09/02 02:33:10;;;;;;;2.73;2.20;;;20.40;73.20;;;20.84;46.73;98668.06;5011813;28;113984;-84
2022/09/02 02:35:36;;;;;;;3.10;2.53;;;20.40;73.20;;;20.83;46.80;98666.47;5020138;28;113915;-85
2022/09/02 02:38:03;;;;;;;3.10;2.20;;;20.40;73.20;;;20.80;46.78;98668.03;5024486;28;124667;-82
2022/09/02 02:40:30;;;;;;;2.50;2.30;;;20.40;73.10;;;20.79;46.72;98662.78;5012447;28;123698;-81
2022/09/02 02:42:57;;;;;;;2.93;2.37;;;20.30;73.00;;;20.75;46.55;98671.19;5021970;28;114189;-83
2022/09/02 02:45:24;;;;;;;4.10;2.70;;;20.30;72.90;;;20.70;46.45;98663.09;5039023;27;114057;-84
2022/09/02 02:47:52;;;;;;;3.50;2.70;;;20.30;72.90;;;20.67;46.64;98659.06;5013571;28;124819;-85
2022/09/02 02:50:21;;;;;;;2.77;2.10;;;20.30;73.00;;;20.63;46.78;98661.03;5017125;28;124346;-83
2022/09/02 02:52:48;;;;;;;3.20;2.33;;;20.20;72.90;;;20.59;46.37;98665.78;5015739;28;114118;-84
2022/09/02 02:55:15;;;;;;;3.30;2.50;;;20.20;72.90;;;20.59;47.05;98662.97;5019339;28;111989;-83
2022/09/02 02:57:43;;;;;;;2.90;2.50;;;20.20;73.10;;;20.57;46.88;98659.75;5025998;28;124236;-83
2022/09/02 03:00:22;;;;;;;3.80;2.30;;;20.10;73.10;;;20.56;46.88;98658.13;5014770;28;123870;-88
2022/09/02 03:02:49;;;;;;;4.23;2.70;;;20.10;73.10;;;20.52;46.68;98651.63;5033555;27;114930;-81
2022/09/02 03:05:16;;;;;;;3.10;2.60;;;20.10;73.10;;;20.48;46.89;98654.41;5014479;28;114207;-81
2022/09/02 03:07:43;;;;;;;3.80;2.40;;;20.10;73.20;;;20.47;46.89;98655.59;5028474;27;124121;-83
2022/09/02 03:10:12;;;;;;;3.83;2.77;;;20.00;73.20;;;20.44;46.93;98663.97;5009283;28;124105;-86
2022/09/02 03:12:39;;;;;;;3.73;2.50;;;20.00;73.40;;;20.43;46.77;98653.94;5021625;28;114560;-82
2022/09/02 03:15:10;;;;;;;7.60;2.30;;;20.00;73.60;;;20.43;46.93;98665.16;5025634;28;114637;-84
2022/09/02 03:17:37;;;;;;;4.47;2.43;;;20.00;73.70;;;20.42;47.14;98657.94;5022309;28;124115;-85
2022/09/02 03:20:06;;;;;;;4.50;2.80;;;20.00;73.90;;;20.40;47.13;98654.69;5033297;27;122772;-84
2022/09/02 03:22:36;;;;;;;2.77;2.20;;;19.90;73.90;;;20.39;47.30;98659.50;5032491;27;114590;-83
2022/09/02 03:25:07;;;;;;;2.40;2.20;;;19.90;74.10;;;20.37;47.40;98661.09;5020012;28;114553;-82
2022/09/02 03:27:37;;;;;;;3.37;2.40;;;19.90;74.20;;;20.33;47.41;98661.00;5022870;28;122458;-85
2022/09/02 03:30:09;;;;;;;3.87;2.57;;;19.90;74.30;;;20.30;47.23;98653.38;5019712;28;123850;-84
2022/09/02 03:32:36;;;;;;;3.63;2.63;;;19.90;74.40;;;20.30;47.89;98658.97;5026064;27;113811;-84
2022/09/02 03:35:09;;;;;;;4.00;2.80;;;19.80;74.60;;;20.33;47.85;98657.41;5009457;28;113722;-85
2022/09/02 03:37:37;;;;;;;3.00;2.63;;;19.80;74.80;;;20.33;47.72;98665.81;5016725;28;124097;-83
2022/09/02 03:40:08;;;;;;;3.67;2.47;;;19.80;75.00;;;20.32;47.91;98658.59;5026910;28;123908;-85
2022/09/02 03:42:34;;;;;;;3.13;2.50;;;19.80;75.10;;;20.32;47.88;98658.59;5022930;27;113895;-84
2022/09/02 03:45:03;;;;;;;2.53;2.30;;;19.80;75.10;;;20.30;47.77;98656.19;5012100;28;114005;-80
2022/09/02 03:47:32;;;;;;;3.47;2.90;;;19.80;75.20;;;20.32;47.80;98664.22;5017572;28;124278;-81
2022/09/02 03:49:59;;;;;;;3.40;2.63;;;19.80;75.30;;;20.33;47.91;98660.22;5009241;28;123599;-84
2022/09/02 03:52:26;;;;;;;3.43;2.20;;;19.80;75.30;;;20.33;47.58;98654.59;5014652;28;115792;-85
2022/09/02 03:54:52;;;;;;;2.50;2.30;;;19.80;75.40;;;20.35;47.73;98655.03;5012776;28;114660;-84
2022/09/02 03:57:19;;;;;;;4.13;2.43;;;19.80;75.50;;;20.36;47.74;98656.66;5008739;28;124065;-85
2022/09/02 03:59:46;;;;;;;3.40;3.00;;;19.80;75.50;;;20.36;47.69;98656.66;5025224;28;123847;-83
2022/09/02 04:02:12;;;;;;;3.50;2.50;;;19.80;75.40;;;20.34;47.50;98650.59;5011564;27;114505;-81
2022/09/02 04:04:39;;;;;;;2.80;2.40;;;19.80;75.30;;;20.30;47.63;98651.38;5026628;28;114252;-84
2022/09/02 04:07:05;;;;;;;3.00;2.27;;;19.80;75.30;;;20.27;47.45;98660.56;5016710;28;124540;-85
2022/09/02 04:09:32;;;;;;;3.20;2.30;;;19.80;75.20;;;20.24;47.55;98650.09;5008200;27;123717;-85
2022/09/02 04:11:58;;;;;;;3.50;2.50;;;19.80;75.20;;;20.21;47.60;98658.47;5010134;28;114126;-83
2022/09/02 04:14:26;;;;;;;3.10;2.37;;;19.80;75.20;;;20.18;47.46;98664.84;5011187;28;114059;-84
2022/09/02 04:20:59;;;;;;;3.40;2.40;;;19.70;75.20;;;20.04;47.43;98659.81;5011404;28;124643;-81
2022/09/02 04:23:26;;;;;;;2.37;2.10;;;19.60;75.10;;;19.98;47.44;98655.75;5024285;28;113225;-83
2022/09/02 04:25:53;;;;;;;3.30;2.33;;;19.60;75.10;;;19.93;47.44;98662.47;5012793;28;114120;-84
2022/09/02 04:28:21;;;;;;;2.70;2.23;;;19.60;75.10;;;19.90;47.76;98648.41;5006410;28;123402;-85
2022/09/02 04:30:47;;;;;;;3.27;2.53;;;19.50;75.00;;;19.84;47.49;98657.16;5010259;28;122890;-83
2022/09/02 04:33:15;;;;;;;2.70;2.30;;;19.50;75.00;;;19.79;47.83;98653.84;5011913;28;114310;-82
2022/09/02 04:35:45;;;;;;;3.90;2.93;;;19.40;75.10;;;19.74;47.80;98652.19;5008924;28;114029;-82
2022/09/02 04:38:12;;;;;;;2.80;2.20;;;19.40;75.20;;;19.73;47.88;98644.97;5014850;28;123620;-83
2022/09/02 04:40:44;;;;;;;3.57;2.37;;;19.30;75.30;;;19.70;47.89;98640.13;5023534;28;123920;-81
2022/09/02 04:43:12;;;;;;;3.43;2.27;;;19.30;75.50;;;19.66;47.92;98644.84;5009954;28;114114;-83
2022/09/02 04:45:42;;;;;;;2.70;2.17;;;19.30;75.60;;;19.62;48.23;98639.16;5037001;27;114108;-85
2022/09/02 04:48:10;;;;;;;7.13;2.27;;;19.20;75.60;;;19.60;48.17;98640.72;5011552;27;124088;-87
2022/09/02 04:50:39;;;;;;;4.80;2.73;;;19.20;75.70;;;19.59;48.36;98650.34;5010744;28;124578;-82
2022/09/02 04:53:05;;;;;;;4.43;2.47;;;19.20;76.00;;;19.59;48.52;98653.13;5020165;28;113063;-81
2022/09/02 04:55:33;;;;;;;3.67;2.53;;;19.20;76.10;;;19.60;48.28;98644.34;5015835;28;114435;-83
2022/09/02 04:58:00;;;;;;;2.83;2.20;;;19.20;76.30;;;19.61;48.34;98653.53;5009358;28;124625;-84
2022/09/02 05:00:26;;;;;;;2.53;2.23;;;19.10;76.30;;;19.62;48.38;98643.97;5007771;28;123869;-83
2022/09/02 05:02:54;;;;;;;3.20;2.40;;;19.10;76.50;;;19.66;48.52;98644.84;5021529;27;114441;-84
2022/09/02 05:05:21;;;;;;;5.10;2.80;;;19.20;76.80;;;19.67;48.50;98651.28;5007812;28;114172;-83
2022/09/02 05:07:47;;;;;;;3.37;2.43;;;19.20;76.90;;;19.70;48.55;98644.94;5015155;28;123053;-84
2022/09/02 05:10:15;;;;;;;4.30;3.10;;;19.20;77.00;;;19.73;48.47;98644.97;5022516;27;123913;-81
2022/09/02 05:12:42;;;;;;;4.00;2.17;;;19.20;77.10;;;19.75;48.41;98653.00;5016703;28;114245;-81
2022/09/02 05:15:11;;;;;;;2.97;2.13;;;19.20;76.90;;;19.73;48.37;98653.38;5008716;28;114248;-80
2022/09/02 05:17:37;;;;;;;3.30;2.00;;;19.20;76.90;;;19.75;48.20;98653.81;5007677;28;124190;-82
2022/09/02 05:20:07;;;;;;;3.73;2.30;;;19.30;77.00;;;19.75;48.22;98658.63;5005888;28;123611;-83
2022/09/02 05:22:35;;;;;;;3.57;2.23;;;19.30;77.00;;;19.76;48.26;98649.00;5015700;28;114724;-83
2022/09/02 05:25:06;;;;;;;3.80;2.50;;;19.30;77.00;;;19.77;48.24;98650.63;5010032;28;114315;-81
2022/09/02 05:27:32;;;;;;;4.03;2.80;;;19.30;76.90;;;19.78;48.46;98653.06;5015178;28;123795;-84
2022/09/02 05:29:59;;;;;;;2.40;2.13;;;19.30;76.80;;;19.80;48.13;98659.09;5014736;28;124477;-83
2022/09/02 05:32:26;;;;;;;3.57;2.43;;;19.30;77.50;;;19.82;47.97;98658.72;5010526;28;115071;-83
2022/09/02 05:34:54;;;;;;;3.30;2.70;;;19.30;76.80;;;19.84;48.04;98657.16;5007757;28;114873;-85
2022/09/02 05:37:23;;;;;;;4.03;2.43;;;19.30;76.80;;;19.83;47.86;98655.53;5018917;28;123218;-84
2022/09/02 05:39:50;;;;;;;4.00;2.80;;;19.30;76.60;;;19.83;48.08;98652.75;5014264;28;124259;-83
2022/09/02 05:42:19;;;;;;;4.33;2.13;;;19.30;76.60;;;19.86;47.87;98653.97;5025480;28;114153;-86
2022/09/02 05:44:46;;;;;;;3.20;2.60;;;19.30;76.70;;;19.89;48.21;98652.41;5014780;28;113774;-85
2022/09/02 05:47:12;;;;;;;7.57;3.00;;;19.30;76.80;;;19.89;48.20;98647.59;4989579;28;123957;-86
2022/09/02 05:49:39;;;;;;;3.33;2.40;;;19.30;76.80;;;19.91;47.90;98644.41;5002201;28;123634;-83
2022/09/02 05:52:09;;;;;;;5.10;3.47;;;19.40;76.90;;;19.96;47.83;98647.72;4985012;28;114090;-83
2022/09/02 05:54:38;;;;;;;3.10;2.50;;;19.40;77.00;;;19.99;47.82;98646.16;5002137;28;114052;-84
2022/09/02 05:57:11;;;;;;;8.20;3.10;;;19.40;76.80;;;19.96;47.61;98642.13;4979156;28;123615;-87
2022/09/02 05:59:41;;;;;;;9.37;3.90;;;19.40;76.80;;;19.97;47.74;98642.91;5003412;28;123813;-85
2022/09/02 06:02:14;;;;;;;7.07;3.20;;;19.40;76.80;;;19.95;47.33;98645.28;5017631;28;114649;-84
2022/09/02 06:04:48;;;;;;;6.33;3.07;;;19.40;76.50;;;19.89;47.69;98646.81;4990727;28;114088;-83
2022/09/02 06:07:17;;;;;;;6.53;3.77;;;19.30;76.60;;;19.90;47.54;98649.22;4989422;28;124044;-83
2022/09/02 06:09:44;;;;;;;4.80;2.70;;;19.30;76.70;;;19.95;47.87;98650.88;5002987;28;123838;-83
2022/09/02 06:12:12;;;;;;;4.40;2.83;;;19.30;76.80;;;20.02;47.61;98656.59;4984046;28;114644;-83
2022/09/02 06:14:41;;;;;;;4.30;3.37;;;19.40;76.80;;;20.06;47.38;98657.44;5006531;28;114069;-82
2022/09/02 06:17:11;;;;;;;8.40;3.83;;;19.40;76.70;;;20.09;47.59;98648.28;5010124;28;124025;-84
2022/09/02 06:19:37;;;;;;;6.13;3.17;;;19.50;76.70;;;20.19;47.62;98647.63;5004836;28;124676;-84
2022/09/02 06:22:04;;;;;;;8.57;3.43;;;19.50;76.70;;;20.25;47.20;98657.31;4999813;28;115550;-82
2022/09/02 06:24:32;;;;;;;5.13;2.70;;;19.60;76.40;;;20.32;47.11;98648.19;5014111;28;113894;-83
2022/09/02 06:27:00;;;;;;;6.13;2.70;;;19.60;76.30;;;20.37;46.34;98649.88;5026411;28;124256;-82
2022/09/02 06:29:27;;;;;;;7.93;3.30;;;19.70;75.80;;;20.42;46.54;98646.72;5015569;28;123850;-82
2022/09/02 06:31:54;;;;;;;5.83;3.20;;;19.70;75.60;;;20.46;46.34;98650.38;5009546;28;113549;-82
2022/09/02 06:34:25;;;;;;;6.43;3.50;;;19.80;75.50;;;20.51;45.99;98639.59;5011049;28;114403;-84
2022/09/02 06:36:52;;;;;;;8.03;2.97;;;19.80;75.40;;;20.59;45.86;98651.75;5018289;28;124792;-82
2022/09/02 06:39:22;;;;;;;6.23;2.80;;;19.90;75.20;;;20.66;45.40;98635.00;5011873;28;123919;-82
2022/09/02 06:41:48;;;;;;;3.67;2.60;;;20.00;75.20;;;20.68;45.64;98643.03;5006083;28;113153;-82
2022/09/02 06:44:17;;;;;;;5.77;2.43;;;20.00;74.40;;;20.72;45.64;98633.47;5014825;28;115204;-81
2022/09/02 06:46:51;;;;;;;3.77;2.43;;;20.00;74.40;;;20.82;45.28;98643.19;5007233;28;124062;-84
2022/09/02 06:49:18;;;;;;;5.63;2.70;;;20.10;74.30;;;20.92;45.31;98636.06;5020067;28;123805;-83
2022/09/02 06:51:47;;;;;;;3.57;2.37;;;20.20;74.10;;;21.02;44.68;98640.97;5016589;28;115288;-83
2022/09/02 06:54:18;;;;;;;5.20;2.90;;;20.30;73.90;;;21.09;45.01;98632.63;5013317;28;114171;-83
2022/09/02 06:56:47;;;;;;;4.87;2.80;;;20.40;74.00;;;21.18;44.44;98637.91;5022100;27;123932;-82
2022/09/02 06:59:13;;;;;;;3.10;2.40;;;20.40;73.00;;;21.16;44.32;98634.69;5026102;27;123042;-86
2022/09/02 07:01:42;;;;;;;5.10;2.80;;;20.40;73.10;;;21.21;44.33;98628.72;5013731;27;114112;-82
2022/09/02 07:06:56;;;;;;;2.93;2.20;;;20.60;73.00;;;21.31;44.46;98625.19;5008378;28;97337;-83
2022/09/02 07:09:32;;;;;;;4.10;2.60;;;20.60;72.80;;;21.37;44.18;98628.44;5013669;28;123692;-84
2022/09/02 07:12:01;;;;;;;7.53;2.67;;;20.60;72.50;;;21.40;44.14;98628.50;5004765;28;113382;-85
2022/09/02 07:14:28;;;;;;;3.70;2.30;;;20.70;72.30;;;21.46;43.77;98619.72;5014126;28;115648;-86
2022/09/02 07:16:56;;;;;;;7.20;3.00;;;20.70;72.30;;;21.49;43.60;98635.78;5016923;27;124157;-84
2022/09/02 07:19:24;;;;;;;3.97;2.97;;;20.70;71.80;;;21.49;43.57;98619.72;5015544;28;123762;-85
2022/09/02 07:21:51;;;;;;;6.20;2.23;;;20.70;71.90;;;21.56;43.56;98624.59;5010172;28;114272;-85
2022/09/02 07:24:18;;;;;;;4.50;2.57;;;20.80;71.90;;;21.60;43.54;98620.63;5010096;28;114088;-85
2022/09/02 07:26:45;;;;;;;4.73;2.40;;;20.90;71.70;;;21.67;43.17;98611.44;5009064;28;124302;-86
2022/09/02 07:29:12;;;;;;;3.50;1.93;;;20.90;71.50;;;21.73;43.66;98611.84;5008511;28;123704;-85
2022/09/02 07:31:43;;;;;;;5.70;1.80;;;21.00;71.80;;;21.80;43.45;98607.09;5015411;28;114660;-84
2022/09/02 07:34:10;;;;;;;7.33;2.57;;;21.10;71.60;;;21.89;43.15;98614.38;5023064;28;113339;-84
2022/09/02 07:36:37;;;;;;;;;;;21.10;71.50;;;21.93;43.09;98618.03;5022746;28;123233;-85
2022/09/02 07:39:05;;;;;;;;;;;21.20;71.10;;;21.95;43.28;98609.97;5032197;28;123379;-85
2022/09/02 07:41:32;;;;;;;;;;;21.20;71.00;;;21.98;43.05;98607.19;5021999;28;114298;-86
2022/09/02 07:43:59;;;;;;;;;;;21.20;71.00;;;22.06;42.88;98603.22;5018981;28;113948;-84
2022/09/02 07:46:28;;;;;;;;;;;21.30;70.80;;;22.09;42.39;98606.47;5025023;28;123574;-85
2022/09/02 07:48:55;;;;;;;;;;;21.40;70.40;;;22.11;42.84;98616.13;5014774;28;124316;-86
2022/09/02 07:51:21;;;;;;;;;;;21.40;70.40;;;22.15;42.71;98610.50;5012250;28;115209;-86
2022/09/02 07:53:49;;;;;;;;;;;21.40;70.20;;;22.21;42.43;98614.56;5014154;28;113811;-85
2022/09/02 07:56:16;;;;;;;;;;;21.50;70.20;;;22.27;42.26;98607.34;5009877;28;124446;-85
2022/09/02 07:58:44;;;;;;;;;;;21.50;70.00;;;22.34;42.16;98609.41;5024418;27;124097;-85
2022/09/02 08:01:11;;;;;;;;;;;21.60;69.70;;;22.36;41.86;98604.19;5013913;28;115552;-86
2022/09/02 08:03:39;;;;;;;;;;;21.60;69.40;;;22.40;42.00;98600.16;5014830;27;113955;-84
2022/09/02 08:06:06;;;;;;;;;;;21.70;69.40;;;22.44;41.86;98606.63;5010525;28;124739;-82
2022/09/02 08:08:33;;;;;;;;;;;21.70;68.80;;;22.46;41.70;98598.59;5016064;28;123707;-82
2022/09/02 08:11:00;;;;;;;;;;;21.70;69.60;;;22.49;41.82;98597.78;5021075;28;114800;-84
2022/09/02 08:13:26;;;;;;;;;;;21.80;68.80;;;22.54;41.64;98604.22;5014126;28;113606;-84
2022/09/02 08:15:55;;;;;;;;;;;21.80;68.50;;;22.55;41.65;98603.84;5008691;28;125539;-84
2022/09/02 08:18:21;;;;;;;;;;;21.80;68.70;;;22.65;41.49;98605.88;5016833;28;124934;-84
2022/09/02 08:20:47;;;;;;;;;;;21.90;68.70;;;22.74;40.74;98607.53;5016736;28;114460;-82
2022/09/02 08:23:14;;;;;;;;;;;22.00;67.70;;;22.76;40.68;98605.91;5015067;28;113715;-84
2022/09/02 08:25:41;;;;;;;;;;;22.00;66.90;;;22.79;40.77;98613.56;5013254;28;124596;-84
2022/09/02 08:28:08;;;;;;;;;;;22.10;67.10;;;22.82;40.31;98601.50;5010280;28;124065;-85
2022/09/02 08:30:34;;;;;;;;;;;22.10;66.20;;;22.79;39.48;98605.13;4999973;28;113286;-85
2022/09/02 08:33:01;;;;;;;3.90;1.80;;;22.10;64.70;;;22.78;39.67;98603.47;5019447;28;114457;-84
2022/09/02 08:35:27;;;;;;;2.40;1.67;;;22.10;65.00;;;22.77;39.10;98613.16;5007107;28;124275;-84
2022/09/02 08:37:54;;;;;;;5.60;2.07;;;22.10;64.10;;;22.76;39.31;98610.75;5017054;28;122950;-84
2022/09/02 08:40:24;;;;;;;2.90;1.90;;;22.10;64.10;;;22.76;39.29;98597.47;5016809;28;113980;-84
2022/09/02 08:42:55;;;;;;;3.00;2.00;;;22.10;64.30;;;22.82;38.95;98603.50;5011786;28;113993;-85
2022/09/02 08:45:26;;;;;;;;;;;22.10;63.30;;;22.85;38.78;98606.31;5008407;28;123370;-85
2022/09/02 08:48:05;;;;;;;;;;;22.20;63.20;;;22.87;38.71;98601.09;5010752;28;124052;-83
2022/09/02 08:50:31;;;;;;;;;;;22.20;62.90;;;22.93;38.51;98593.84;5007348;28;115991;-84
2022/09/02 08:53:17;;;;;;;3.13;1.63;;;22.30;62.70;;;22.97;38.29;98593.09;5017425;28;114808;-82
2022/09/02 08:55:53;;;;;;;3.37;1.80;;;22.30;61.90;;;22.92;37.90;98597.91;5011223;28;124685;-84
2022/09/02 08:58:28;;;;;;;10.93;2.40;;;22.30;61.10;;;22.89;38.10;98592.22;5014964;27;124171;-84
2022/09/02 09:01:45;;;;;;;3.40;1.57;;;22.20;61.20;;;22.85;38.01;98575.34;5016577;27;114757;-85
2022/09/02 09:04:49;;;;;;;3.07;1.90;;;22.30;60.90;;;22.86;37.79;98582.59;5002054;28;114349;-82
2022/09/02 09:07:53;;;;;;;3.13;1.60;;;22.30;60.70;;;22.90;37.79;98588.22;5010250;28;124154;-84
2022/09/02 09:10:57;;;;;;;2.50;1.90;;;22.30;60.20;;;22.95;37.44;98590.66;5010867;28;123832;-86
2022/09/02 09:14:31;;;;;;;3.60;1.60;;;22.30;60.00;;;23.01;37.91;98577.00;5010350;28;114037;-85
2022/09/02 09:17:05;;;;;;;2.70;1.60;;;22.40;60.30;;;23.10;37.43;98569.75;5010455;28;112704;-85
2022/09/02 09:19:53;;;;;;;2.70;1.70;;;22.50;60.00;;;23.17;36.84;98571.78;5004897;28;123409;-86
2022/09/02 09:22:36;;;;;;;3.90;2.10;;;22.60;59.20;;;23.23;36.80;98575.00;5012458;28;123949;-85
2022/09/02 09:25:12;;;;;;;3.97;1.53;;;22.60;59.10;;;23.28;36.90;98574.59;5020280;28;114215;-83
2022/09/02 09:27:39;;;;;;;2.27;1.80;;;22.70;59.30;;;23.34;36.68;98568.13;5017154;28;113273;-85
2022/09/02 09:30:09;;;;;;;1.97;1.50;;;22.70;58.90;;;23.37;36.50;98569.31;5007337;28;123981;-84
2022/09/02 09:32:43;;;;;;;2.80;1.70;;;22.70;58.70;;;23.36;35.85;98571.34;5011624;27;122521;-81
2022/09/02 09:35:13;;;;;;;5.47;1.40;;;22.70;58.00;;;23.38;35.98;98576.59;5040734;27;114329;-81
2022/09/02 09:37:47;;;;;;;1.30;1.20;;;22.80;57.50;;;23.40;35.87;98565.72;5028135;28;112897;-85
2022/09/02 09:40:29;;;;;;;4.93;1.57;;;22.80;57.30;;;23.42;35.37;98559.66;5019392;27;124399;-86
2022/09/02 09:43:16;;;;;;;6.57;1.50;;;22.90;56.50;;;23.42;35.46;98560.47;5025502;27;123830;-86
2022/09/02 09:45:46;;;;;;;4.90;1.60;;;22.90;56.60;;;23.46;34.78;98557.66;5007228;28;115414;-86
2022/09/02 09:48:15;;;;;;;3.33;1.80;;;22.90;55.60;;;23.48;34.77;98560.84;5021529;28;114981;-81
2022/09/02 09:50:44;;;;;;;3.83;1.57;;;22.90;55.50;;;23.48;35.10;98556.03;5015875;28;124997;-82
2022/09/02 09:53:20;;;;;;;2.57;1.50;;;22.90;55.40;;;23.47;34.84;98556.44;5020229;28;123566;-88
2022/09/02 09:56:03;;;;;;;2.17;1.53;;;22.90;55.20;;;23.48;34.58;98560.84;5011281;28;114558;-84
2022/09/02 09:58:37;;;;;;;6.00;1.37;;;23.00;54.60;;;23.48;34.39;98555.22;5010111;28;113929;-84
2022/09/02 10:01:39;;;;;;;2.50;1.80;;;22.90;54.20;;;23.46;34.77;98546.38;5014039;27;124033;-83
2022/09/02 10:04:29;;;;;;;3.73;1.63;;;22.90;54.30;;;23.49;34.55;98549.19;4987986;28;124116;-84
2022/09/02 10:06:55;;;;;;;3.73;1.67;;;23.00;54.50;;;23.56;34.51;98539.88;5012796;28;113397;-85
2022/09/02 10:09:29;;;;;;;3.70;1.60;;;23.00;54.40;;;23.60;34.08;98532.25;5011663;28;114068;-85
2022/09/02 10:12:03;;;;;;;2.67;1.73;;;23.10;53.80;;;23.63;33.96;98534.25;5022282;28;124616;-86
2022/09/02 10:14:37;;;;;;;2.97;1.47;;;23.10;53.50;;;23.64;34.05;98535.84;5011497;27;124431;-79
2022/09/02 10:17:23;;;;;;;2.40;1.30;;;23.10;53.30;;;23.65;33.51;98543.09;5020978;27;114979;-83
2022/09/02 10:20:34;;;;;;;2.47;1.40;;;23.10;52.50;;;23.67;32.47;98537.03;5010143;28;114005;-83
2022/09/02 10:23:11;;;;;;;4.07;1.87;;;23.10;50.80;;;23.71;32.36;98532.22;5027091;27;124520;-84
2022/09/02 10:26:31;;;;;;;2.90;1.57;;;23.20;51.00;;;23.73;32.07;98535.47;5019913;28;123631;-85
2022/09/02 10:29:36;;;;;;;5.50;1.00;;;23.20;49.60;;;23.75;32.14;98535.84;5003662;28;115125;-86
2022/09/02 10:32:12;;;;;;;3.00;1.50;;;23.20;49.80;;;23.85;31.51;98522.91;5008411;28;113874;-86
2022/09/02 10:35:16;;;;;;;4.50;1.53;;;23.30;49.40;;;23.92;31.53;98531.38;5013830;28;124636;-84
2022/09/02 10:38:22;;;;;;;1.80;1.30;;;23.40;48.90;;;24.00;31.04;98524.50;5010680;28;123874;-85
2022/09/02 10:41:25;;;;;;;2.10;1.30;;;23.50;48.40;;;24.06;31.46;98517.19;5024871;28;115422;-85